Aroma Park, IL (60910)

5:25 AM CDT on July 30, 2016 (GMT -0500)
Aroma Park | | Change Station
Active Advisory: Special Statement Active Notice: Public Information Statement

Elev 633 ft 41.08 °N, 87.81 °W | Updated 8 minutes ago

Fog
Fog
66.6 °F
Feels Like 66.6 °F
N
2.2
Wind Variable Wind from North

Today
High -- | Low -- °F
--% Chance of Precip.
Yesterday
High -- | Low -- °F
Precip. -- in
Pressure 29.93 in
Visibility 0.5 miles
Clouds Overcast 300 ft
Dew Point 66 °F
Humidity 99%
Rainfall 0.00 in
Snow Depth Not available.
5:45 AM 8:09 PM
Waning Crescent, 14% visible
METAR KIKK 301015Z AUTO 00000KT 1/2SM FG OVC003 20/19 A2993 RMK AO2 LTG DSNT NE T01960191
Pressure 29.93 in
Visibility 0.5 miles
Clouds Overcast 300 ft
Dew Point 66 °F
Humidity 99%
Rainfall 0.00 in
Snow Depth Not available.
5:45 AM 8:09 PM
Waning Crescent, 14% visible
METAR KIKK 301015Z AUTO 00000KT 1/2SM FG OVC003 20/19 A2993 RMK AO2 LTG DSNT NE T01960191

10-Day Weather Forecast

Almanac

Astronomy

Jul. 30, 2016 Rise Set
Actual Time
Civil Twilight
Nautical Twilight
Astronomical Twilight
Moon
Length of Visible Light
Length of Day
Tomorrow will be .
, % of the Moon is Illuminated

Today's Extremes

State Highs State Lows

Community

WunderPhotos

Upload Photos

1,928,530 photos uploaded!

WunderBlog® & News

Nearby

Air Quality

  Air Quality AQ Index Pollutant
Not available.

Snow Depth

Station Depth Elevation

Earthquake Activity

City Distance Mag. Time & Date
Minimum magnitude displayed is 2.5.

Coastal Water Temperatures

Place Temperature

Stations

Nearby Weather Stations

Station Location Temp. Windchill Dew Point Humidity Wind Precip. Elev Updated Type
                   

Watches & Warnings

Special Statement
Issued: 6:00 AM EDT Jul. 30, 2016 – National Weather Service

... Patchy dense fog this morning...

Fog with patchy dense fog has developed across portions of
northern Illinois and Northwest Indiana this morning. Travelers
should use caution as visibility may vary over short distances and
could fall to below one half mile at times. Fog will likely
dissipate around 8 am CDT today.


Rodriguez

500 am CDT Sat Jul 30 2016 /600 am EDT Sat Jul 30 2016/

... Patchy dense fog this morning...

Fog with patchy dense fog has developed across portions of
northern Illinois and Northwest Indiana this morning. Travelers
should use caution as visibility may vary over short distances and
could fall to below one half mile at times. Fog will likely
dissipate around 8 am CDT today.


Rodriguez